createdAt,value
2018-06-28T00:01:34.337Z,13.07
2018-06-28T00:04:02.117Z,13.05
2018-06-28T00:06:29.925Z,13.07
2018-06-28T00:08:57.707Z,13.08
2018-06-28T00:11:25.575Z,13.10
2018-06-28T00:13:53.397Z,13.11
2018-06-28T00:16:21.152Z,13.12
2018-06-28T00:18:48.962Z,13.11
2018-06-28T00:21:16.800Z,13.11
2018-06-28T00:23:44.660Z,13.11
2018-06-28T00:26:12.422Z,13.11
2018-06-28T00:28:40.283Z,13.09
2018-06-28T00:31:08.058Z,13.08
2018-06-28T00:33:35.814Z,13.06
2018-06-28T00:36:03.536Z,13.05
2018-06-28T00:38:31.257Z,13.04
2018-06-28T00:40:59.110Z,13.02
2018-06-28T00:43:26.946Z,13.02
2018-06-28T00:45:54.669Z,13.00
2018-06-28T00:48:22.410Z,12.98
2018-06-28T00:50:50.186Z,12.99
2018-06-28T00:53:17.772Z,12.94
2018-06-28T00:55:45.443Z,12.92
2018-06-28T00:58:13.079Z,12.91
2018-06-28T01:01:10.880Z,12.89
2018-06-28T01:03:38.389Z,12.88
2018-06-28T01:06:05.970Z,12.87
2018-06-28T01:09:13.531Z,12.87
2018-06-28T01:11:41.540Z,12.85
2018-06-28T01:14:09.136Z,12.85
2018-06-28T01:16:37.164Z,12.83
2018-06-28T01:19:44.764Z,12.84
2018-06-28T01:22:12.461Z,12.83
2018-06-28T01:24:40.003Z,12.83
2018-06-28T01:27:07.599Z,12.85
2018-06-28T01:36:17.400Z,12.86
2018-06-28T01:38:44.955Z,12.88
2018-06-28T01:41:12.562Z,12.89
2018-06-28T01:43:44.149Z,12.87
2018-06-28T01:46:12.005Z,12.91
2018-06-28T01:48:39.813Z,12.91
2018-06-28T01:51:07.430Z,12.94
2018-06-28T01:53:34.978Z,12.95
2018-06-28T01:56:02.623Z,12.99
2018-06-28T01:58:30.207Z,13.02
2018-06-28T02:00:57.921Z,13.02
2018-06-28T02:03:25.514Z,13.04
2018-06-28T02:05:53.869Z,13.04
2018-06-28T02:08:21.733Z,13.05
2018-06-28T02:10:49.340Z,13.07
2018-06-28T02:13:17.279Z,13.08
2018-06-28T02:15:44.841Z,13.08
2018-06-28T02:18:12.424Z,13.08
2018-06-28T02:27:22.748Z,13.11
2018-06-28T02:29:50.315Z,13.14
2018-06-28T02:32:17.911Z,13.16
2018-06-28T02:34:45.474Z,13.17
2018-06-28T02:37:13.089Z,13.20
2018-06-28T02:39:40.751Z,13.18
2018-06-28T02:42:08.378Z,13.21
2018-06-28T02:44:35.907Z,13.25
2018-06-28T02:47:03.596Z,13.24
2018-06-28T02:50:11.199Z,13.26
2018-06-28T02:52:38.771Z,13.29
2018-06-28T02:55:06.330Z,13.31
2018-06-28T02:57:33.947Z,13.32
2018-06-28T03:03:22.433Z,13.32
2018-06-28T03:05:50.119Z,13.34
2018-06-28T03:08:17.743Z,13.36
2018-06-28T03:10:45.349Z,13.40
2018-06-28T03:13:12.895Z,13.43
2018-06-28T03:15:40.463Z,13.45
2018-06-28T03:18:08.192Z,13.47
2018-06-28T03:20:35.811Z,13.47
2018-06-28T03:23:03.444Z,13.47
2018-06-28T03:25:31.026Z,13.52
2018-06-28T03:27:58.622Z,13.53
2018-06-28T03:30:26.295Z,13.57
2018-06-28T03:32:53.892Z,13.60
2018-06-28T03:35:21.467Z,13.62
2018-06-28T03:37:49.165Z,13.66
2018-06-28T03:40:16.782Z,13.70
2018-06-28T03:42:44.371Z,13.77
2018-06-28T03:45:11.983Z,13.82
2018-06-28T03:47:39.567Z,13.84
2018-06-28T03:50:20.079Z,13.90
2018-06-28T03:52:47.659Z,13.94
2018-06-28T03:55:15.226Z,14.04
2018-06-28T03:57:42.825Z,14.06
2018-06-28T04:00:10.431Z,14.07
2018-06-28T04:02:38.039Z,14.12
2018-06-28T04:05:05.692Z,14.17
2018-06-28T04:07:33.359Z,14.22
2018-06-28T04:10:06.033Z,14.24
2018-06-28T04:12:33.635Z,14.29
2018-06-28T04:15:01.236Z,14.30
2018-06-28T04:17:28.783Z,14.29
2018-06-28T04:23:17.591Z,14.26
2018-06-28T04:25:45.187Z,14.31
2018-06-28T04:28:12.921Z,14.31
2018-06-28T04:30:40.488Z,14.36
2018-06-28T04:33:08.048Z,14.41
2018-06-28T04:35:35.653Z,14.46
2018-06-28T04:38:03.219Z,14.47
2018-06-28T04:40:30.889Z,14.46
2018-06-28T04:42:58.455Z,14.48
2018-06-28T04:45:26.003Z,14.53
2018-06-28T04:47:53.630Z,14.59
2018-06-28T04:50:21.216Z,14.62
2018-06-28T04:52:48.791Z,14.64
2018-06-28T04:55:16.347Z,14.68
2018-06-28T04:57:43.923Z,14.72
2018-06-28T05:00:11.571Z,14.73
2018-06-28T05:02:39.219Z,14.78
2018-06-28T05:05:07.114Z,14.81
2018-06-28T05:07:34.687Z,14.93
2018-06-28T05:10:16.711Z,15.00
2018-06-28T05:12:44.295Z,15.01
2018-06-28T05:15:11.917Z,15.04
2018-06-28T05:17:39.643Z,14.99
2018-06-28T05:20:07.219Z,15.03
2018-06-28T05:22:34.839Z,15.08
2018-06-28T05:25:03.010Z,15.15
2018-06-28T05:27:30.591Z,15.19
2018-06-28T05:33:19.019Z,15.17
2018-06-28T05:35:46.627Z,15.17
2018-06-28T05:38:14.183Z,15.22
2018-06-28T05:40:41.795Z,15.19
2018-06-28T05:43:09.427Z,15.24
2018-06-28T05:45:37.069Z,15.26
2018-06-28T05:48:04.652Z,15.25
2018-06-28T05:50:32.233Z,15.25
2018-06-28T05:52:59.834Z,15.22
2018-06-28T05:55:27.451Z,15.13
2018-06-28T05:57:55.019Z,15.02
2018-06-28T06:00:22.571Z,15.05
2018-06-28T06:02:50.164Z,15.11
2018-06-28T06:05:17.735Z,15.21
2018-06-28T06:07:45.298Z,15.30
2018-06-28T06:10:13.101Z,15.27
2018-06-28T06:12:40.627Z,15.21
2018-06-28T06:15:08.273Z,15.12
2018-06-28T06:17:35.935Z,15.05
2018-06-28T06:36:48.710Z,14.37
2018-06-28T06:45:58.557Z,14.10
2018-06-28T06:48:26.096Z,14.05
2018-06-28T06:50:53.709Z,13.93
2018-06-28T06:53:21.336Z,14.01
2018-06-28T06:55:48.931Z,14.05
2018-06-28T06:58:16.556Z,14.11
2018-06-28T07:01:32.533Z,14.17
2018-06-28T07:04:00.159Z,14.09
2018-06-28T07:06:27.720Z,14.16
2018-06-28T07:08:55.263Z,14.22
2018-06-28T07:11:23.332Z,14.15
2018-06-28T07:13:50.935Z,14.07
2018-06-28T07:16:18.659Z,14.16
2018-06-28T07:18:46.274Z,14.12
2018-06-28T07:21:13.851Z,14.01
2018-06-28T07:23:41.504Z,14.06
2018-06-28T07:26:09.153Z,14.13
2018-06-28T07:35:19.109Z,14.21
2018-06-28T07:37:46.724Z,14.30
2018-06-28T07:40:14.404Z,14.34
2018-06-28T07:42:42.112Z,14.37
2018-06-28T07:45:09.745Z,14.27
2018-06-28T07:47:37.450Z,14.32
2018-06-28T07:50:05.702Z,14.24
2018-06-28T07:52:33.300Z,14.04
2018-06-28T07:55:01.124Z,14.06
2018-06-28T07:57:28.771Z,14.07
2018-06-28T08:03:37.208Z,14.07
2018-06-28T08:06:04.995Z,14.15
2018-06-28T08:08:32.701Z,14.22
2018-06-28T08:11:00.291Z,14.25
2018-06-28T08:13:27.969Z,14.35
2018-06-28T08:15:55.608Z,14.45
2018-06-28T08:18:23.208Z,14.47
2018-06-28T08:20:50.895Z,14.51
2018-06-28T08:23:18.484Z,14.38
2018-06-28T08:25:46.135Z,14.19
2018-06-28T08:28:13.794Z,14.20
2018-06-28T08:34:33.572Z,14.18
2018-06-28T08:37:01.205Z,14.22
2018-06-28T08:46:11.239Z,14.24
2018-06-28T08:48:38.876Z,14.13
2018-06-28T08:51:06.969Z,14.04
2018-06-28T08:53:34.566Z,14.02
2018-06-28T08:56:02.146Z,14.01
2018-06-28T08:58:29.866Z,13.94
2018-06-28T09:00:57.531Z,13.99
2018-06-28T09:03:25.180Z,14.05
2018-06-28T09:05:52.862Z,14.17
2018-06-28T09:08:20.532Z,14.22
2018-06-28T09:10:48.241Z,14.22
2018-06-28T09:13:15.896Z,14.27
2018-06-28T09:15:43.503Z,14.36
2018-06-28T09:18:11.221Z,14.28
2018-06-28T09:37:24.625Z,14.21
2018-06-28T09:39:52.297Z,14.23
2018-06-28T09:42:19.904Z,14.23
2018-06-28T09:44:47.591Z,14.25
2018-06-28T09:47:15.278Z,14.31
2018-06-28T09:49:42.927Z,14.28
2018-06-28T09:52:10.590Z,14.26
2018-06-28T09:54:38.311Z,14.15
2018-06-28T09:57:05.899Z,14.20
2018-06-28T10:12:58.004Z,13.98
2018-06-28T10:15:25.634Z,14.02
2018-06-28T10:17:53.344Z,14.03
2018-06-28T10:20:20.962Z,13.91
2018-06-28T10:22:48.642Z,13.89
2018-06-28T10:25:16.344Z,13.93
2018-06-28T10:27:44.069Z,13.94
2018-06-28T10:33:33.331Z,14.01
2018-06-28T10:36:01.012Z,14.01
2018-06-28T10:38:28.654Z,13.99
2018-06-28T10:40:56.330Z,13.93
2018-06-28T10:43:23.960Z,13.95
2018-06-28T10:45:51.544Z,13.83
2018-06-28T10:48:19.156Z,13.82
2018-06-28T10:50:46.881Z,13.96
2018-06-28T10:53:14.490Z,13.98
2018-06-28T10:55:42.133Z,14.01
2018-06-28T10:58:09.928Z,14.10
2018-06-28T11:00:51.899Z,13.98
2018-06-28T11:03:19.528Z,13.90
2018-06-28T11:05:47.118Z,13.80
2018-06-28T11:08:14.811Z,13.82
2018-06-28T11:10:42.412Z,13.95
2018-06-28T11:13:10.047Z,13.61
2018-06-28T11:15:37.743Z,14.04
2018-06-28T11:18:05.293Z,13.99
2018-06-28T11:20:32.945Z,14.04
2018-06-28T11:23:00.594Z,14.10
2018-06-28T11:25:28.192Z,14.12
2018-06-28T11:27:55.836Z,14.14
2018-06-28T11:37:50.179Z,14.13
2018-06-28T11:43:39.415Z,14.38
2018-06-28T11:46:07.076Z,14.50
2018-06-28T11:55:56.796Z,14.64
2018-06-28T11:58:24.367Z,14.60
2018-06-28T12:00:52.076Z,14.67
2018-06-28T12:03:19.768Z,14.70
2018-06-28T12:05:47.695Z,14.67
2018-06-28T12:08:15.287Z,14.60
2018-06-28T12:10:42.885Z,14.41
2018-06-28T12:13:10.517Z,14.57
2018-06-28T12:15:38.191Z,14.58
2018-06-28T12:18:05.792Z,14.60
2018-06-28T12:20:33.544Z,14.57
2018-06-28T12:23:01.175Z,14.57
2018-06-28T12:25:28.731Z,14.62
2018-06-28T12:27:56.340Z,14.54
2018-06-28T12:37:06.927Z,14.61
2018-06-28T12:39:34.495Z,14.60
2018-06-28T12:42:02.030Z,14.55
2018-06-28T12:44:29.604Z,14.45
2018-06-28T12:49:05.837Z,14.43
2018-06-28T12:51:44.943Z,14.43
2018-06-28T12:54:12.566Z,14.39
2018-06-28T12:56:41.384Z,14.23
2018-06-28T13:12:34.975Z,13.89
2018-06-28T13:15:02.617Z,13.83
2018-06-28T13:17:30.279Z,13.80
2018-06-28T13:20:17.350Z,13.83
2018-06-28T13:22:44.989Z,13.84
2018-06-28T13:25:12.596Z,13.86
2018-06-28T13:27:40.203Z,13.87
2018-06-28T13:30:08.837Z,13.87
2018-06-28T13:32:36.435Z,13.85
2018-06-28T13:35:04.114Z,13.80
2018-06-28T13:37:31.631Z,13.77
2018-06-28T13:40:43.802Z,13.80
2018-06-28T13:43:11.622Z,13.79
2018-06-28T13:45:39.279Z,13.70
2018-06-28T13:48:06.848Z,13.74
2018-06-28T13:50:34.537Z,13.76
2018-06-28T13:53:02.139Z,13.73
2018-06-28T13:55:29.744Z,13.68
2018-06-28T13:57:57.368Z,13.70
2018-06-28T14:00:25.021Z,13.72
2018-06-28T14:02:52.661Z,13.76
2018-06-28T14:05:20.353Z,13.76
2018-06-28T14:07:48.004Z,13.79
2018-06-28T14:14:05.419Z,13.89
2018-06-28T14:16:33.080Z,13.89
2018-06-28T14:25:43.458Z,13.77
2018-06-28T14:28:11.128Z,13.74
2018-06-28T14:37:21.239Z,13.68
2018-06-28T14:39:48.884Z,13.71
2018-06-28T14:42:16.526Z,13.77
2018-06-28T14:44:44.051Z,13.81
2018-06-28T14:47:11.664Z,13.84
2018-06-28T14:49:39.406Z,13.87
2018-06-28T14:52:07.091Z,13.90
2018-06-28T14:54:34.857Z,13.94
2018-06-28T14:57:02.500Z,13.95
2018-06-28T14:59:30.092Z,13.99
2018-06-28T15:01:57.736Z,14.02
2018-06-28T15:04:25.355Z,14.08
2018-06-28T15:06:52.965Z,13.99
2018-06-28T15:09:20.651Z,14.04
2018-06-28T15:11:48.299Z,14.11
2018-06-28T15:14:15.876Z,14.14
2018-06-28T15:16:43.524Z,14.17
2018-06-28T15:19:11.158Z,14.20
2018-06-28T15:21:38.804Z,14.27
2018-06-28T15:24:06.449Z,14.32
2018-06-28T15:26:34.148Z,14.39
2018-06-28T15:53:12.766Z,14.60
2018-06-28T15:55:40.383Z,14.58
2018-06-28T15:58:08.077Z,14.59
2018-06-28T16:00:35.725Z,14.59
2018-06-28T16:03:03.366Z,14.65
2018-06-28T16:05:31.067Z,14.67
2018-06-28T16:07:58.715Z,14.67
2018-06-28T16:17:07.976Z,14.52
2018-06-28T16:19:35.777Z,14.59
2018-06-28T16:22:03.443Z,14.67
2018-06-28T16:24:31.127Z,14.69
2018-06-28T16:26:58.831Z,14.69
2018-06-28T16:29:26.431Z,14.59
2018-06-28T16:31:54.099Z,14.54
2018-06-28T16:34:21.703Z,14.60
2018-06-28T16:36:49.352Z,14.68
2018-06-28T16:46:13.971Z,14.83
2018-06-28T16:59:10.551Z,14.83
2018-06-28T17:01:38.268Z,14.85
2018-06-28T17:04:05.951Z,14.89
2018-06-28T17:06:33.599Z,14.88
2018-06-28T17:19:45.227Z,14.79
2018-06-28T17:22:12.980Z,14.82
2018-06-28T17:24:40.677Z,14.77
2018-06-28T17:27:08.380Z,14.71
2018-06-28T17:29:36.152Z,14.73
2018-06-28T17:32:04.020Z,14.70
2018-06-28T17:34:31.730Z,14.66
2018-06-28T17:36:59.423Z,14.61
2018-06-28T17:39:27.135Z,14.49
2018-06-28T17:41:54.823Z,14.41
2018-06-28T17:44:22.457Z,14.34
2018-06-28T17:46:50.279Z,14.29
2018-06-28T18:06:07.910Z,13.96
2018-06-28T18:08:35.644Z,13.94
2018-06-28T18:11:03.306Z,13.89
2018-06-28T18:13:31.749Z,13.82
2018-06-28T18:15:59.415Z,13.85
2018-06-28T18:18:27.053Z,13.83
2018-06-28T18:20:54.860Z,13.89
2018-06-28T18:23:22.979Z,13.96
2018-06-28T18:25:51.308Z,13.97
2018-06-28T18:28:18.975Z,13.99
2018-06-28T18:40:50.404Z,14.00
2018-06-28T18:43:18.732Z,13.99
2018-06-28T18:45:46.403Z,14.04
2018-06-28T18:48:14.042Z,14.05
2018-06-28T18:57:38.405Z,14.09
2018-06-28T19:17:14.894Z,14.07
2018-06-28T19:19:42.523Z,13.91
2018-06-28T19:22:15.615Z,13.85
2018-06-28T19:24:43.187Z,13.77
2018-06-28T19:27:10.757Z,13.73
2018-06-28T19:29:44.054Z,13.66
2018-06-28T19:32:17.272Z,13.67
2018-06-28T19:34:44.871Z,13.65
2018-06-28T19:37:18.193Z,13.60
2018-06-28T19:39:51.312Z,13.58
2018-06-28T19:42:24.477Z,13.50
2018-06-28T19:44:52.089Z,13.45
2018-06-28T19:47:19.687Z,13.42
2018-06-28T19:49:52.741Z,13.35
2018-06-28T19:52:26.037Z,13.32
2018-06-28T19:54:53.607Z,13.29
2018-06-28T19:57:21.125Z,13.26
2018-06-28T19:59:48.707Z,13.23
2018-06-28T20:02:22.254Z,13.22
2018-06-28T20:04:49.814Z,13.18
2018-06-28T20:07:17.300Z,13.11
2018-06-28T20:09:44.911Z,13.09
2018-06-28T20:12:17.925Z,13.08
2018-06-28T20:14:50.896Z,13.03
2018-06-28T20:17:24.155Z,12.99
2018-06-28T20:19:57.374Z,12.98
2018-06-28T20:22:24.867Z,12.94
2018-06-28T20:24:52.383Z,12.85
2018-06-28T20:27:25.437Z,12.82
2018-06-28T20:29:58.467Z,12.83
2018-06-28T20:32:31.783Z,12.81
2018-06-28T20:34:59.284Z,12.78
2018-06-28T20:37:26.811Z,12.76
2018-06-28T20:39:54.367Z,12.74
2018-06-28T20:42:21.902Z,12.68
2018-06-28T20:44:49.403Z,12.62
2018-06-28T20:47:16.902Z,12.56
2018-06-28T20:49:44.549Z,12.51
2018-06-28T20:52:12.075Z,12.41
2018-06-28T20:54:39.603Z,12.34
2018-06-28T20:57:07.434Z,12.25
2018-06-28T20:59:34.946Z,12.26
2018-06-28T21:02:02.444Z,12.30
2018-06-28T21:04:29.970Z,12.28
2018-06-28T21:06:57.495Z,12.29
2018-06-28T21:09:25.134Z,12.30
2018-06-28T21:11:52.654Z,12.26
2018-06-28T21:14:20.202Z,12.21
2018-06-28T21:16:47.744Z,12.15
2018-06-28T21:19:15.290Z,12.06
2018-06-28T21:21:42.839Z,11.98
2018-06-28T21:24:10.357Z,11.82
2018-06-28T21:26:37.856Z,11.72
2018-06-28T21:29:05.390Z,11.64
2018-06-28T21:31:32.882Z,11.57
2018-06-28T21:34:00.525Z,11.50
2018-06-28T21:36:28.002Z,11.41
2018-06-28T21:38:55.504Z,11.30
2018-06-28T21:41:23.047Z,11.29
2018-06-28T21:43:50.559Z,11.19
2018-06-28T21:46:18.063Z,11.12
2018-06-28T21:48:45.610Z,11.09
2018-06-28T21:51:13.323Z,11.02
2018-06-28T21:53:40.799Z,10.97
2018-06-28T21:56:08.311Z,10.91
2018-06-28T21:58:35.873Z,10.87
2018-06-28T22:01:03.351Z,10.75
2018-06-28T22:03:30.849Z,10.72
2018-06-28T22:05:58.408Z,10.67
2018-06-28T22:08:25.903Z,10.59
2018-06-28T22:10:53.391Z,10.56
2018-06-28T22:13:20.947Z,10.49
2018-06-28T22:15:48.435Z,10.46
2018-06-28T22:18:15.929Z,10.43
2018-06-28T22:20:43.497Z,10.38
2018-06-28T22:23:11.002Z,10.32
2018-06-28T22:25:38.516Z,10.33
2018-06-28T22:28:06.080Z,10.31
2018-06-28T22:30:33.611Z,10.28
2018-06-28T22:33:01.111Z,10.26
2018-06-28T22:35:28.616Z,10.25
2018-06-28T22:37:56.190Z,10.22
2018-06-28T22:40:23.674Z,10.21
2018-06-28T22:42:51.191Z,10.18
2018-06-28T22:45:18.735Z,10.17
2018-06-28T22:47:46.222Z,10.14
2018-06-28T22:50:13.734Z,10.12
2018-06-28T22:52:42.131Z,10.11
2018-06-28T22:55:09.650Z,10.07
2018-06-28T22:57:37.187Z,9.99
2018-06-28T23:00:05.779Z,9.97
2018-06-28T23:02:33.283Z,9.98
2018-06-28T23:05:00.769Z,9.98
2018-06-28T23:07:28.345Z,9.93
2018-06-28T23:09:55.828Z,9.91
2018-06-28T23:12:23.302Z,9.90
2018-06-28T23:14:50.828Z,9.85
2018-06-28T23:17:18.311Z,9.83
2018-06-28T23:19:45.870Z,9.78
2018-06-28T23:22:27.668Z,9.73
2018-06-28T23:24:55.215Z,9.71
2018-06-28T23:27:22.698Z,9.71
2018-06-28T23:29:50.203Z,9.64
2018-06-28T23:32:17.727Z,9.60
2018-06-28T23:34:45.227Z,9.60
2018-06-28T23:37:12.856Z,9.59
2018-06-28T23:39:40.392Z,9.55
2018-06-28T23:42:07.876Z,9.52
2018-06-28T23:44:35.415Z,9.49
2018-06-28T23:47:02.903Z,9.47
2018-06-28T23:49:30.400Z,9.44
2018-06-28T23:51:57.942Z,9.45
2018-06-28T23:54:25.459Z,9.43
2018-06-28T23:56:53.160Z,9.39
2018-06-28T23:59:20.674Z,9.39
